UKLL Airport Information

Runway Information
Runway 13 Length 10843 ft width 148 ft
Elevation 1071 ft Threshold 0 ft Heading 136
Runway 31 Length 10843 ft Width 148 ft
Elevation 1055 ft Threshold 0 ft Heading 316
Airport Frequencies
Type APP Name RADAR Frequency 126 MHZ
Type ATIS Name ATIS Frequency 128.7 MHZ
Type TWR Name TWR Frequency 128 MHZ
Airport Navaids
Type VOR-DME Name Lviv Frequency 115500 KHZ
Type NDB Name Lviv Frequency 315 KHZ
Type NDB Name Lviv Frequency 315 KHZ
Airport Weather Information & NOTAM
ADDS - METARS form results

(1020 UTC 24 April 2019)
Data provider http://aviationweather.gov/metar/data/
 
METAR text: UKLL 241000Z 15006MPS 120V180 CAVOK 14/04 Q1023 R13/D NOSIG
Conditions at: UKLL (LVIV , UA) observed 1000 UTC 24 April 2019
Temperature: 14.0°C (57°F)
Dewpoint: 4.0°C (39°F) [RH = 51%]
Pressure (altimeter): 30.21 inches Hg (1023.0 mb)
Winds: from the SSE (150 degrees) at 14 MPH (12 knots; 6.2 m/s)
Visibility: 6 or more miles (10+ km)
Ceiling: ceiling and visibility are OK
Clouds: unknown
Weather: no significant weather observed at this time

METAR text: UKLL 240930Z 14007MPS CAVOK 15/04 Q1023 R13/D NOSIG
Conditions at: UKLL (LVIV , UA) observed 0930 UTC 24 April 2019
Temperature: 15.0°C (59°F)
Dewpoint: 4.0°C (39°F) [RH = 48%]
Pressure (altimeter): 30.21 inches Hg (1023.0 mb)
Winds: from the SE (140 degrees) at 16 MPH (14 knots; 7.2 m/s)
Visibility: 6 or more miles (10+ km)
Ceiling: ceiling and visibility are OK
Clouds: unknown
Weather: no significant weather observed at this time

Forecast for: UKLL (LVIV , UA)
Text: TAF UKLL 240502Z 2406/2506 15007G14MPS 9999 BKN030
Forecast period: 0600 UTC 24 April 2019 to 0600 UTC 25 April 2019
Forecast type: FROM: standard forecast or significant change
Winds: from the SSE (150 degrees) at 16 MPH (14 knots; 7.2 m/s)
gusting to 31 MPH (27 knots; 13.9 m/s)
Visibility: 6 or more miles 10+ km)
Ceiling: 3000 feet AGL
Clouds: broken clouds at 3000 feet AGL
Weather: no significant weather forecast for this period
Text: TEMPO 2500/2506 3000 -SHRA BR BKN007 BKN025CB
Forecast period: 0000 to 0600 UTC 25 April 2019
Forecast type: TEMPORARY: The following changes expected for less than half the time period
Visibility: 1.86 miles (2.99 km)
Ceiling: 700 feet AGL
Clouds: broken clouds at 700 feet AGL
broken clouds at 2500 feet AGL
Weather: -SHRA BR  (light rain showers, mist)